Time;durP1;ratioP1;P1;durP2;ratioP2;P2;SDS_P1;SDS_P2;PMS_P1;PMS_P2;Temp;Humidity;BMP_temperature;BMP_pressure;BME280_temperature;BME280_humidity;BME280_pressure;Samples;Min_cycle;Max_cycle;Signal;HPM_P1;HPM_P2
2023/10/09 00:01:46;;;;;;;199.40;190.68;;;;;;;19.96;59.00;101980.28;5020620;28;20053;-75
2023/10/09 00:04:13;;;;;;;202.27;193.55;;;;;;;19.95;59.47;101973.97;5026121;28;20498;-74
2023/10/09 00:06:41;;;;;;;206.88;197.60;;;;;;;19.94;59.29;101968.78;5022363;28;20068;-74
2023/10/09 00:11:54;;;;;;;201.38;192.63;;;;;;;19.91;59.44;101975.63;5019480;28;20038;-74
2023/10/09 00:14:19;;;;;;;201.40;192.73;;;;;;;19.91;59.56;101974.78;5027791;28;20053;-74
2023/10/09 00:16:56;;;;;;;199.10;190.43;;;;;;;19.90;59.07;101968.50;5026372;28;20124;-74
2023/10/09 00:19:32;;;;;;;199.73;190.68;;;;;;;19.89;59.42;101972.34;5021718;28;20029;-74
2023/10/09 00:22:04;;;;;;;206.07;196.80;;;;;;;19.87;59.14;101969.88;5021428;28;20048;-75
2023/10/09 00:24:31;;;;;;;200.82;191.98;;;;;;;19.86;59.55;101962.75;5023493;28;20045;-74
2023/10/09 00:27:11;;;;;;;203.10;194.13;;;;;;;19.85;59.44;101944.63;5026830;28;20037;-75
2023/10/09 00:29:42;;;;;;;202.10;192.70;;;;;;;19.84;59.08;101933.97;5022325;28;20103;-75
2023/10/09 00:32:13;;;;;;;199.02;190.45;;;;;;;19.83;59.50;101946.00;5024944;28;20065;-74
2023/10/09 00:34:39;;;;;;;200.60;191.90;;;;;;;19.82;59.67;101945.19;5025619;28;20038;-74
2023/10/09 00:40:12;;;;;;;203.25;194.05;;;;;;;19.78;59.15;101915.84;5012262;28;20052;-74
2023/10/09 00:42:38;;;;;;;200.40;191.43;;;;;;;19.77;59.49;101916.97;5026413;28;20032;-74
2023/10/09 00:45:04;;;;;;;202.88;193.35;;;;;;;19.76;59.48;101931.78;5021278;28;20136;-74
2023/10/09 00:47:34;;;;;;;194.23;185.45;;;;;;;19.74;59.08;101937.53;5026300;28;20061;-75
2023/10/09 00:52:49;;;;;;;198.85;190.05;;;;;;;19.72;59.57;101936.97;5023019;28;20037;-74
2023/10/09 00:55:27;;;;;;;192.95;184.48;;;;;;;19.72;59.61;101938.91;5023374;28;20116;-74
2023/10/09 00:57:59;;;;;;;194.57;185.82;;;;;;;19.70;59.73;101939.16;5023822;28;20034;-74
2023/10/09 01:00:45;;;;;;;195.77;186.68;;;;;;;19.70;59.67;101938.34;5021781;28;20045;-74
2023/10/09 01:03:19;;;;;;;199.77;190.68;;;;;;;19.69;59.10;101931.25;5024585;28;20060;-74
2023/10/09 01:06:14;;;;;;;201.52;192.43;;;;;;;19.69;59.19;101929.31;5023931;28;20115;-74
2023/10/09 01:11:09;;;;;;;201.75;192.20;;;;;;;19.67;59.22;101932.31;5022218;28;20038;-75
2023/10/09 01:16:22;;;;;;;196.90;188.15;;;;;;;19.65;59.65;101933.66;5019750;28;20131;-74
2023/10/09 01:18:50;;;;;;;198.98;189.70;;;;;;;19.64;59.71;101937.50;5021446;28;20069;-74
2023/10/09 01:21:17;;;;;;;196.13;187.27;;;;;;;19.64;59.70;101932.03;5021184;28;20047;-74
2023/10/09 01:24:08;;;;;;;194.48;185.95;;;;;;;19.63;59.30;101938.59;5020771;28;20346;-74
2023/10/09 01:26:46;;;;;;;195.90;187.02;;;;;;;19.61;59.26;101938.88;5023836;28;20042;-75
2023/10/09 01:29:19;;;;;;;194.88;186.40;;;;;;;19.59;59.27;101935.59;5027064;28;20154;-75
2023/10/09 01:31:54;;;;;;;198.90;190.30;;;;;;;19.59;59.24;101934.78;5021206;28;20030;-74
2023/10/09 01:34:49;;;;;;;198.32;189.52;;;;;;;19.57;59.33;101932.28;5038617;28;20582;-74
2023/10/09 01:37:23;;;;;;;197.43;189.00;;;;;;;19.57;59.35;101928.72;5023986;28;20037;-74
2023/10/09 01:39:50;;;;;;;201.27;192.60;;;;;;;19.56;59.40;101930.66;5024333;28;20390;-74
2023/10/09 01:44:51;;;;;;;194.70;185.90;;;;;;;19.55;59.50;101930.91;5022015;28;20037;-74
2023/10/09 01:47:18;;;;;;;195.43;186.77;;;;;;;19.54;59.41;101934.78;5023026;28;20025;-74
2023/10/09 01:49:46;;;;;;;196.63;187.98;;;;;;;19.55;59.45;101930.91;5023385;28;20042;-74
2023/10/09 01:52:15;;;;;;;197.93;188.68;;;;;;;19.53;59.25;101928.47;5026929;28;20045;-74
2023/10/09 01:54:42;;;;;;;194.45;186.15;;;;;;;19.53;59.45;101931.22;5022274;28;20037;-74
2023/10/09 01:57:12;;;;;;;200.00;190.85;;;;;;;19.53;59.35;101925.72;5022497;28;20040;-75
2023/10/09 01:59:43;;;;;;;193.73;185.40;;;;;;;19.52;59.73;101923.25;5025219;28;20026;-74
2023/10/09 02:02:26;;;;;;;190.60;182.00;;;;;;;19.51;59.43;101925.19;5018135;28;20048;-75
2023/10/09 02:05:40;;;;;;;190.43;182.27;;;;;;;19.49;59.47;101921.88;5022107;28;20041;-73
2023/10/09 02:07:52;;;;;;;190.77;182.48;;;;;;;19.49;59.19;101918.34;5021601;28;20188;-74
2023/10/09 02:12:59;;;;;;;189.30;181.15;;;;;;;19.48;59.40;101919.41;5027126;28;20501;-73
2023/10/09 02:18:16;;;;;;;191.20;182.80;;;;;;;19.46;59.33;101915.03;5021378;28;20481;-74
2023/10/09 02:20:44;;;;;;;193.10;183.95;;;;;;;19.45;59.82;101907.91;5024609;28;20049;-73
2023/10/09 02:23:13;;;;;;;190.15;181.85;;;;;;;19.44;59.49;101909.00;5023971;28;20473;-73
2023/10/09 02:25:43;;;;;;;189.98;181.77;;;;;;;19.45;59.64;101893.38;5023564;28;20083;-74
2023/10/09 02:28:08;;;;;;;190.27;182.07;;;;;;;19.44;59.36;101895.31;5021060;28;20030;-73
2023/10/09 02:30:34;;;;;;;189.40;180.95;;;;;;;19.43;59.67;101893.66;5024738;28;20112;-72
2023/10/09 02:33:09;;;;;;;187.90;179.63;;;;;;;19.43;59.36;101892.84;5021947;28;20036;-73
2023/10/09 02:35:38;;;;;;;189.52;180.77;;;;;;;19.42;59.63;101897.50;5021362;28;20102;-73
2023/10/09 02:38:07;;;;;;;188.43;180.13;;;;;;;19.41;59.38;101898.59;5025804;28;20034;-72
2023/10/09 02:40:40;;;;;;;189.95;180.95;;;;;;;19.40;59.79;101899.72;5023852;28;20120;-74
2023/10/09 02:43:12;;;;;;;188.20;179.90;;;;;;;19.40;59.29;101894.22;5025134;28;20041;-73
2023/10/09 02:45:49;;;;;;;198.45;190.02;;;;;;;19.39;59.28;101897.22;5024752;28;20061;-73
2023/10/09 02:48:25;;;;;;;188.75;179.80;;;;;;;19.38;59.87;101888.19;5026283;28;20033;-73
2023/10/09 02:50:50;;;;;;;187.95;179.95;;;;;;;19.36;59.51;101893.13;5028608;28;20048;-73
2023/10/09 02:53:19;;;;;;;193.55;184.55;;;;;;;19.36;59.58;101892.31;5025120;28;20038;-73
2023/10/09 02:56:03;;;;;;;194.02;185.10;;;;;;;19.34;59.66;101894.47;5026699;28;20508;-73
2023/10/09 02:58:32;;;;;;;188.90;180.75;;;;;;;19.33;59.69;101896.41;5025438;28;20038;-73
2023/10/09 03:00:58;;;;;;;193.00;184.43;;;;;;;19.33;59.89;101893.66;5022727;28;20473;-73
2023/10/09 03:03:25;;;;;;;193.27;184.90;;;;;;;19.32;59.68;101900.22;5025526;28;20037;-73
2023/10/09 03:05:50;;;;;;;189.98;181.95;;;;;;;19.31;59.77;101890.38;5026223;28;20054;-73
2023/10/09 03:08:19;;;;;;;189.55;181.32;;;;;;;19.31;59.85;101878.59;5027849;28;20056;-73
2023/10/09 03:10:44;;;;;;;184.18;175.60;;;;;;;19.30;59.76;101872.28;5025838;28;20041;-73
2023/10/09 03:13:10;;;;;;;186.63;178.68;;;;;;;19.29;59.84;101869.84;5025572;28;20083;-74
2023/10/09 03:15:35;;;;;;;183.75;175.73;;;;;;;19.28;59.77;101866.28;5027246;28;20034;-72
2023/10/09 03:18:04;;;;;;;185.90;177.43;;;;;;;19.26;59.48;101864.91;5026179;28;20041;-73
2023/10/09 03:20:30;;;;;;;;;;;;;;;19.26;59.70;101867.66;5024256;28;20121;-73
2023/10/09 03:22:55;;;;;;;178.27;170.13;;;;;;;19.24;59.66;101860.50;5023127;28;19921;-73
2023/10/09 03:25:24;;;;;;;181.10;173.45;;;;;;;19.23;59.68;101860.78;5023623;28;20051;-75
2023/10/09 03:27:50;;;;;;;186.20;177.90;;;;;;;19.22;59.69;101851.72;5026842;28;20370;-75
2023/10/09 03:30:22;;;;;;;181.93;173.63;;;;;;;19.22;60.20;101849.00;5024209;28;20037;-75
2023/10/09 03:32:50;;;;;;;184.43;175.98;;;;;;;19.21;59.79;101847.38;5027797;28;20037;-74
2023/10/09 03:35:23;;;;;;;;;;;;;;;19.19;59.82;101849.56;5022273;28;20042;-75
2023/10/09 03:37:49;;;;;;;174.93;167.05;;;;;;;19.18;59.49;101849.84;5028702;28;19917;-74
2023/10/09 03:40:17;;;;;;;174.90;167.25;;;;;;;19.17;59.69;101845.44;5024742;28;20116;-75
2023/10/09 03:42:43;;;;;;;185.38;177.23;;;;;;;19.16;59.96;101844.63;5023007;28;20124;-74
2023/10/09 03:45:27;;;;;;;183.63;174.82;;;;;;;19.16;60.05;101850.09;5030258;28;20191;-73
2023/10/09 03:48:43;;;;;;;189.05;180.68;;;;;;;19.16;59.52;101852.84;5024210;28;20028;-73
2023/10/09 03:50:43;;;;;;;181.07;173.13;;;;;;;19.15;60.10;101855.84;5012908;28;20114;-72
2023/10/09 03:53:11;;;;;;;186.50;178.23;;;;;;;19.15;59.71;101858.59;5030342;28;20045;-72
2023/10/09 03:55:40;;;;;;;182.70;174.30;;;;;;;19.13;60.01;101861.63;5018798;28;20037;-73
2023/10/09 03:58:11;;;;;;;;;;;;;;;19.14;59.83;101862.44;5027962;28;20033;-74
2023/10/09 04:00:48;;;;;;;178.48;170.73;;;;;;;19.11;60.08;101861.06;5029392;28;19974;-74
2023/10/09 04:03:15;;;;;;;176.35;168.07;;;;;;;19.09;59.69;101854.22;5024562;28;20053;-73
2023/10/09 04:05:42;;;;;;;178.63;170.68;;;;;;;19.09;60.17;101855.03;5019696;28;20054;-73
2023/10/09 04:08:13;;;;;;;182.68;174.85;;;;;;;19.08;59.88;101850.66;5020994;28;20026;-73
2023/10/09 04:10:50;;;;;;;185.18;176.57;;;;;;;19.09;59.70;101843.25;5025918;28;20389;-73
2023/10/09 04:13:22;;;;;;;183.70;175.80;;;;;;;19.09;59.82;101846.00;5023293;28;20060;-75
2023/10/09 04:15:53;;;;;;;184.43;175.95;;;;;;;19.09;59.90;101835.03;5030797;28;20095;-73
2023/10/09 04:18:28;;;;;;;182.32;174.20;;;;;;;19.08;60.16;101841.63;5020969;28;20042;-73
2023/10/09 04:21:18;;;;;;;181.32;173.27;;;;;;;19.08;60.29;101836.97;5029257;28;20044;-73
2023/10/09 04:23:59;;;;;;;185.55;177.45;;;;;;;19.06;60.33;101852.03;5017151;28;20045;-74
2023/10/09 04:26:25;;;;;;;186.15;177.85;;;;;;;19.06;60.25;101873.94;5021954;28;20635;-74
2023/10/09 04:28:52;;;;;;;188.48;179.65;;;;;;;19.05;59.70;101884.06;5027596;28;20120;-74
2023/10/09 04:31:31;;;;;;;190.20;181.27;;;;;;;19.06;60.13;101873.94;5025110;28;20666;-74
2023/10/09 04:36:56;;;;;;;182.35;173.88;;;;;;;19.05;59.92;101888.69;5022682;28;20045;-74
2023/10/09 04:42:46;;;;;;;179.40;171.45;;;;;;;19.03;60.32;101881.59;5029762;28;20048;-74
2023/10/09 04:47:38;;;;;;;183.20;175.20;;;;;;;19.02;60.34;101866.25;5026993;28;20045;-73
2023/10/09 04:50:15;;;;;;;184.75;176.65;;;;;;;19.02;59.91;101862.69;5024743;28;20061;-73
2023/10/09 05:02:56;;;;;;;185.07;176.35;;;;;;;19.01;59.83;101855.56;5018889;28;20053;-74
2023/10/09 05:08:19;;;;;;;184.35;175.43;;;;;;;18.99;60.02;101857.75;5021335;28;20041;-75
2023/10/09 05:16:13;;;;;;;170.40;162.27;;;;;;;18.96;60.29;101855.56;5021189;28;19917;-73
2023/10/09 05:18:39;;;;;;;175.63;167.43;;;;;;;18.95;60.17;101851.16;5016146;28;20480;-73
2023/10/09 05:24:15;;;;;;;177.38;169.45;;;;;;;18.94;60.27;101864.03;5026562;28;20131;-73
2023/10/09 05:26:50;;;;;;;180.63;172.50;;;;;;;18.93;60.23;101889.78;5018419;28;20489;-73
2023/10/09 05:32:03;;;;;;;182.25;174.00;;;;;;;18.93;60.47;101900.75;5023708;28;20103;-74
2023/10/09 05:37:17;;;;;;;182.60;174.20;;;;;;;18.93;60.01;101898.00;5021167;28;20044;-72
2023/10/09 05:47:53;;;;;;;179.43;171.48;;;;;;;18.91;60.50;101896.63;5013772;28;20045;-73
2023/10/09 06:06:42;;;;;;;178.80;170.95;;;;;;;18.88;60.53;101914.41;5048540;28;20287;-74
2023/10/09 06:14:24;;;;;;;185.10;176.18;;;;;;;18.87;60.34;101903.72;5024787;28;20051;-73
2023/10/09 06:27:56;;;;;;;180.60;172.63;;;;;;;18.86;60.42;101913.84;5021436;28;20044;-73
2023/10/09 06:33:04;;;;;;;185.18;176.77;;;;;;;18.86;60.09;101918.53;5016104;28;20064;-73
2023/10/09 06:35:35;;;;;;;188.48;180.38;;;;;;;18.86;60.35;101919.34;5025431;28;20086;-73
2023/10/09 06:43:07;;;;;;;184.38;175.98;;;;;;;18.84;60.53;101910.56;5026748;28;20049;-74
2023/10/09 06:45:43;;;;;;;181.77;173.65;;;;;;;18.84;60.31;101916.03;5030232;28;20366;-74
2023/10/09 06:58:55;;;;;;;185.73;177.18;;;;;;;18.80;60.59;101882.09;5029185;28;20052;-74
2023/10/09 07:15:01;;;;;;;181.18;172.77;;;;;;;18.79;60.35;101855.81;5027096;28;20490;-73
2023/10/09 07:17:44;;;;;;;;;;;;;;;18.77;60.68;101875.25;5024691;28;20044;-74
2023/10/09 07:20:13;;;;;;;180.00;170.90;;;;;;;18.74;60.54;101864.78;5026881;28;19916;-73
2023/10/09 07:22:52;;;;;;;183.55;174.77;;;;;;;18.75;60.41;101879.31;5026816;28;20029;-73
2023/10/09 07:28:03;;;;;;;177.43;169.00;;;;;;;18.74;60.17;101913.25;5025193;28;19978;-73
2023/10/09 07:38:14;;;;;;;183.43;174.65;;;;;;;18.74;60.66;101930.47;5024454;28;20068;-73
2023/10/09 07:40:59;;;;;;;184.98;176.73;;;;;;;18.74;60.35;101952.38;5027586;28;20033;-73
2023/10/09 07:43:51;;;;;;;185.25;176.48;;;;;;;18.74;60.40;101938.69;5024157;28;21080;-75
2023/10/09 07:46:52;;;;;;;182.90;174.35;;;;;;;18.75;60.17;101939.53;5015985;28;20048;-72
2023/10/09 07:49:24;;;;;;;181.43;172.80;;;;;;;18.74;60.78;101935.97;5022437;28;20033;-73
2023/10/09 07:51:52;;;;;;;183.43;174.80;;;;;;;18.75;60.33;101923.13;5027258;28;20048;-73
2023/10/09 07:54:31;;;;;;;188.73;179.00;;;;;;;18.74;60.77;101918.72;5024205;28;20033;-73
2023/10/09 07:57:08;;;;;;;178.32;169.90;;;;;;;18.74;60.55;101915.97;5026417;28;20300;-76
2023/10/09 07:59:41;;;;;;;182.38;173.35;;;;;;;18.75;60.51;101918.50;5024854;28;20037;-72
2023/10/09 08:02:13;;;;;;;184.95;176.35;;;;;;;18.74;60.44;101914.06;5027614;28;20048;-73
2023/10/09 08:04:39;;;;;;;187.10;178.63;;;;;;;18.76;60.32;101922.03;5027621;28;20362;-74
2023/10/09 08:07:09;;;;;;;183.85;175.35;;;;;;;18.76;60.62;101917.38;5024388;28;20061;-74
2023/10/09 08:11:35;;;;;;;188.75;179.85;;;;;;;18.77;60.69;101920.94;5028576;28;20106;-74
2023/10/09 08:12:47;;;;;;;181.98;173.25;;;;;;;18.76;60.46;101922.03;5024759;28;20462;-73
2023/10/09 08:17:58;;;;;;;180.93;172.63;;;;;;;18.76;60.44;101922.03;5025781;28;20486;-74
2023/10/09 08:20:25;;;;;;;180.68;172.45;;;;;;;18.76;60.41;101922.88;5026489;28;20465;-73
2023/10/09 08:22:56;;;;;;;187.40;177.90;;;;;;;18.76;60.96;101920.13;5021834;28;20065;-75
2023/10/09 08:25:31;;;;;;;188.15;179.55;;;;;;;18.76;60.54;101920.13;5025154;28;20034;-73
2023/10/09 08:36:01;;;;;;;185.60;176.50;;;;;;;18.78;61.09;101931.63;5023403;28;20037;-73
2023/10/09 08:38:32;;;;;;;173.45;165.85;;;;;;;18.78;60.70;101914.38;5025482;28;20113;-74
2023/10/09 08:41:14;;;;;;;184.48;175.88;;;;;;;18.78;60.97;101908.91;5023876;28;20112;-74
2023/10/09 08:43:47;;;;;;;178.25;169.90;;;;;;;18.78;61.09;101901.53;5024034;28;20055;-75
2023/10/09 08:46:18;;;;;;;183.45;174.40;;;;;;;18.78;60.79;101896.03;5021953;28;20025;-74
2023/10/09 08:48:45;;;;;;;181.80;173.43;;;;;;;18.80;61.25;101904.00;5010331;28;20469;-73
2023/10/09 08:51:10;;;;;;;188.20;179.27;;;;;;;18.80;61.26;101912.22;5023580;28;20033;-74
2023/10/09 08:53:42;;;;;;;184.70;175.43;;;;;;;18.80;60.93;101910.28;5026071;28;20087;-74
2023/10/09 08:56:10;;;;;;;185.82;175.98;;;;;;;18.81;61.13;101908.38;5024060;28;20044;-74
2023/10/09 08:58:40;;;;;;;196.47;187.03;;;;;;;18.83;61.27;101902.63;5023317;28;20041;-74
2023/10/09 09:01:06;;;;;;;188.05;178.95;;;;;;;18.83;61.28;101905.38;5022267;28;20508;-73
2023/10/09 09:03:45;;;;;;;188.02;179.20;;;;;;;18.83;61.32;101900.72;5023405;28;20128;-73
2023/10/09 09:06:11;;;;;;;188.25;178.88;;;;;;;18.86;61.17;101902.91;5024227;28;20060;-74
2023/10/09 09:08:38;;;;;;;186.80;177.25;;;;;;;18.86;61.13;101905.66;5025431;28;20140;-73
2023/10/09 09:11:17;;;;;;;187.07;177.38;;;;;;;18.89;61.14;101907.03;5029060;28;20148;-72
2023/10/09 09:13:50;;;;;;;183.57;175.07;;;;;;;18.90;61.00;101906.75;5019671;28;20026;-73
2023/10/09 09:16:29;;;;;;;186.25;177.07;;;;;;;18.90;61.10;101912.25;5020143;28;20045;-72
2023/10/09 09:19:17;;;;;;;190.15;180.05;;;;;;;18.90;61.37;101909.50;5027384;28;20044;-73
2023/10/09 09:21:49;;;;;;;194.38;183.55;;;;;;;18.92;60.98;101923.72;5019894;28;20064;-73
2023/10/09 09:27:00;;;;;;;190.85;181.75;;;;;;;18.97;61.28;101933.88;5023797;28;20077;-73
2023/10/09 09:29:37;;;;;;;195.82;186.23;;;;;;;18.98;61.53;101941.81;5021459;28;20041;-73
2023/10/09 09:32:22;;;;;;;193.82;184.05;;;;;;;19.01;61.67;101951.41;5018788;28;20034;-73
2023/10/09 09:34:54;;;;;;;187.15;178.32;;;;;;;19.03;61.46;101960.19;5021181;28;20036;-74
2023/10/09 09:37:24;;;;;;;191.68;181.93;;;;;;;19.05;61.34;101958.00;5024004;28;20396;-74
2023/10/09 09:39:51;;;;;;;186.40;177.32;;;;;;;19.06;61.83;101959.63;5024766;28;20052;-73
2023/10/09 09:42:24;;;;;;;192.25;181.95;;;;;;;19.08;61.54;101967.59;5026138;28;20362;-73
2023/10/09 09:44:51;;;;;;;191.27;181.60;;;;;;;19.10;61.36;101971.72;5027515;28;20042;-72
2023/10/09 09:47:29;;;;;;;193.60;183.63;;;;;;;19.13;61.75;101971.16;5023578;28;20113;-72
2023/10/09 09:50:11;;;;;;;193.48;183.90;;;;;;;19.14;61.53;101963.75;5024254;28;20125;-74
2023/10/09 09:52:40;;;;;;;191.40;181.38;;;;;;;19.16;61.66;101964.31;5029656;28;20033;-73
2023/10/09 09:55:22;;;;;;;188.80;179.50;;;;;;;19.17;61.82;101968.69;5029646;28;20044;-76
2023/10/09 09:57:51;;;;;;;191.00;182.00;;;;;;;19.19;61.33;101980.22;5023025;28;20386;-73
2023/10/09 10:00:42;;;;;;;193.63;184.27;;;;;;;19.18;61.23;101976.66;5025530;28;20038;-73
2023/10/09 10:03:13;;;;;;;190.98;181.77;;;;;;;19.19;61.91;101975.53;5027674;28;20029;-73
2023/10/09 10:05:41;;;;;;;197.70;188.20;;;;;;;19.20;62.00;101979.09;5027126;28;20065;-74
2023/10/09 10:08:12;;;;;;;187.27;178.43;;;;;;;19.22;61.71;101991.44;5026268;28;20478;-73
2023/10/09 10:10:47;;;;;;;195.27;185.65;;;;;;;19.27;61.40;101987.06;5027053;28;20491;-73
2023/10/09 10:13:21;;;;;;;194.27;184.60;;;;;;;19.29;61.70;101993.91;5026779;28;20036;-75
2023/10/09 10:16:02;;;;;;;198.55;188.57;;;;;;;19.34;61.58;101990.38;5028797;28;20041;-77
2023/10/09 10:18:32;;;;;;;195.55;186.27;;;;;;;19.38;61.60;101986.81;5027688;28;20398;-75
2023/10/09 10:21:16;;;;;;;202.18;192.48;;;;;;;19.40;61.95;101987.38;5031268;28;20114;-76
2023/10/09 10:23:47;;;;;;;197.82;188.30;;;;;;;19.43;62.02;101988.75;5029373;28;20049;-74
2023/10/09 10:26:30;;;;;;;195.00;185.25;;;;;;;19.45;61.76;101984.66;5026909;28;20516;-75
2023/10/09 10:29:23;;;;;;;199.18;190.00;;;;;;;19.48;62.22;101985.16;5028679;28;20041;-76
2023/10/09 10:32:10;;;;;;;196.93;186.73;;;;;;;19.48;61.97;101986.03;5025316;28;20496;-75
2023/10/09 10:34:56;;;;;;;201.68;192.38;;;;;;;19.48;61.57;101986.03;5031570;28;20045;-76
2023/10/09 10:37:43;;;;;;;199.15;189.77;;;;;;;19.50;61.83;101986.53;5026441;28;20053;-75
2023/10/09 10:40:15;;;;;;;198.20;189.30;;;;;;;19.48;62.10;101980.53;5029552;28;20076;-76
2023/10/09 10:43:09;;;;;;;200.60;190.52;;;;;;;19.52;62.05;101969.84;5028795;28;20038;-75
2023/10/09 10:45:35;;;;;;;201.63;191.23;;;;;;;19.54;61.52;101973.94;5025114;28;20073;-74
2023/10/09 10:48:07;;;;;;;194.25;185.80;;;;;;;19.55;62.13;101983.00;5028473;28;20050;-74
2023/10/09 10:53:14;;;;;;;204.88;195.20;;;;;;;19.57;62.08;101978.88;5025033;28;20139;-76
2023/10/09 10:55:56;;;;;;;202.13;192.73;;;;;;;19.61;61.70;101981.91;5036332;28;20029;-77
2023/10/09 10:58:24;;;;;;;200.00;190.50;;;;;;;19.63;62.15;101982.44;5026625;28;20453;-74
2023/10/09 11:06:37;;;;;;;196.60;187.07;;;;;;;19.73;61.68;101985.25;5005543;28;20073;-75
2023/10/09 11:09:23;;;;;;;202.68;193.20;;;;;;;19.78;61.99;101988.00;5006815;28;20486;-75
2023/10/09 11:12:11;;;;;;;204.57;194.57;;;;;;;19.82;61.91;101974.53;5021353;28;20042;-72
2023/10/09 11:14:45;;;;;;;;;;;;;;;19.85;61.59;101973.97;5029695;28;20057;-71
2023/10/09 11:17:25;;;;;;;198.20;188.90;;;;;;;19.87;61.55;101978.09;5020925;28;19921;-72
2023/10/09 11:19:52;;;;;;;202.48;192.88;;;;;;;19.91;61.88;101978.38;5027797;28;20033;-72
2023/10/09 11:22:36;;;;;;;201.60;192.75;;;;;;;19.93;61.89;101978.91;5024846;28;20087;-73
2023/10/09 11:25:11;;;;;;;200.68;191.82;;;;;;;19.95;62.05;101982.19;5023433;28;20128;-72
2023/10/09 11:27:39;;;;;;;203.85;194.95;;;;;;;19.97;61.84;101981.94;5023655;28;20080;-72
2023/10/09 11:30:25;;;;;;;205.32;196.18;;;;;;;19.99;62.14;101982.50;5023544;28;20163;-72
2023/10/09 11:32:51;;;;;;;202.20;193.02;;;;;;;20.02;62.08;101974.50;5022238;28;20072;-72
2023/10/09 11:35:28;;;;;;;203.75;195.00;;;;;;;20.05;62.11;101978.63;5024149;28;20382;-72
2023/10/09 11:37:57;;;;;;;201.57;193.07;;;;;;;20.04;62.20;101982.47;5024461;28;20038;-73
2023/10/09 11:43:16;;;;;;;199.55;190.95;;;;;;;20.06;61.72;101991.25;5023873;28;21250;-72
2023/10/09 11:45:54;;;;;;;198.18;189.98;;;;;;;20.06;62.32;101981.09;5027452;28;20454;-71
2023/10/09 11:48:46;;;;;;;200.03;191.27;;;;;;;20.09;61.73;101976.97;5021337;28;20120;-71
2023/10/09 11:51:21;;;;;;;203.35;195.10;;;;;;;20.10;62.25;101986.84;5026740;28;20078;-72
2023/10/09 11:53:49;;;;;;;206.27;197.65;;;;;;;20.09;61.94;101977.81;5026513;28;20486;-73
2023/10/09 11:56:19;;;;;;;207.77;198.38;;;;;;;20.12;62.13;101975.59;5021792;28;20063;-72
2023/10/09 11:58:49;;;;;;;203.35;194.57;;;;;;;20.16;61.90;101983.00;5025325;28;20080;-72
2023/10/09 12:01:20;;;;;;;206.65;198.40;;;;;;;20.21;61.92;101982.16;5025845;28;20653;-72
2023/10/09 12:03:53;;;;;;;208.30;199.80;;;;;;;20.23;62.23;101982.72;5024470;28;20041;-73
2023/10/09 12:06:22;;;;;;;211.60;202.52;;;;;;;20.26;62.13;101980.25;5023178;28;20081;-73
2023/10/09 12:08:48;;;;;;;209.48;200.75;;;;;;;20.30;61.94;101983.25;5025899;28;20374;-74
2023/10/09 12:11:20;;;;;;;215.63;205.93;;;;;;;20.32;61.77;101986.53;5027412;28;20045;-74
2023/10/09 12:13:47;;;;;;;212.45;203.43;;;;;;;20.35;62.08;101977.75;5023353;28;20037;-74
2023/10/09 12:16:15;;;;;;;213.60;204.20;;;;;;;20.38;61.86;101970.88;5026729;28;20025;-74
2023/10/09 12:18:42;;;;;;;216.88;206.90;;;;;;;20.41;61.76;101968.41;5025920;28;20029;-73
2023/10/09 12:21:08;;;;;;;213.18;204.43;;;;;;;20.43;61.66;101965.38;5025162;28;20047;-73
2023/10/09 12:23:37;;;;;;;218.82;208.95;;;;;;;20.44;61.77;101951.38;5023676;28;20033;-73
2023/10/09 12:26:03;;;;;;;222.00;212.73;;;;;;;20.48;61.65;101962.59;5027772;28;20034;-73
2023/10/09 12:28:29;;;;;;;216.40;207.10;;;;;;;20.52;62.06;101960.97;5024343;28;20079;-73
2023/10/09 12:31:01;;;;;;;223.65;213.68;;;;;;;20.56;61.83;101970.28;5009578;28;20049;-73
2023/10/09 12:33:27;;;;;;;219.93;210.13;;;;;;;20.59;61.82;101961.50;5020746;28;20605;-73
2023/10/09 12:35:59;;;;;;;217.88;208.73;;;;;;;20.63;61.59;101961.75;5024373;28;20043;-73
2023/10/09 12:38:31;;;;;;;219.32;210.10;;;;;;;20.66;61.51;101950.22;5024330;28;20041;-73
2023/10/09 12:43:48;;;;;;;217.77;208.48;;;;;;;20.73;61.76;101937.81;5022261;28;20196;-73
2023/10/09 12:46:16;;;;;;;223.10;213.35;;;;;;;20.75;61.56;101938.38;5026391;28;20030;-74
2023/10/09 12:48:46;;;;;;;223.93;214.02;;;;;;;20.80;61.39;101937.53;5025378;28;20033;-73
2023/10/09 12:51:18;;;;;;;226.85;217.75;;;;;;;20.82;61.41;101943.56;5028243;28;20044;-73
2023/10/09 12:53:45;;;;;;;218.52;209.50;;;;;;;20.85;61.32;101932.00;5024338;28;20053;-75
2023/10/09 12:56:14;;;;;;;227.05;216.32;;;;;;;20.87;61.63;101931.72;5025202;28;20042;-73
2023/10/09 12:58:52;;;;;;;224.40;215.13;;;;;;;20.89;61.77;101927.59;5026654;28;20045;-73
2023/10/09 13:01:19;;;;;;;225.77;216.13;;;;;;;20.93;61.32;101919.59;5023171;28;20038;-73
2023/10/09 13:03:48;;;;;;;227.60;217.73;;;;;;;20.96;61.29;101908.88;5023732;28;20052;-72
2023/10/09 13:06:15;;;;;;;225.35;215.73;;;;;;;20.99;61.74;101902.00;5025671;28;20786;-72
2023/10/09 13:08:42;;;;;;;228.90;219.10;;;;;;;21.03;61.04;101903.06;5027332;28;20050;-73
2023/10/09 13:11:11;;;;;;;231.27;220.75;;;;;;;21.05;61.16;101906.34;5016396;28;20482;-74
2023/10/09 13:13:46;;;;;;;229.13;219.18;;;;;;;21.09;61.16;101906.56;5023261;28;20385;-73
2023/10/09 13:16:25;;;;;;;231.48;221.35;;;;;;;21.14;61.58;101917.53;5025009;28;20034;-74
2023/10/09 13:18:54;;;;;;;;;;;;;;;21.16;61.39;101915.31;5023152;28;20136;-74
2023/10/09 13:21:21;;;;;;;220.15;210.75;;;;;;;21.19;60.95;101928.47;5020544;28;19925;-73
2023/10/09 13:23:54;;;;;;;226.95;217.00;;;;;;;21.22;61.24;101927.09;5021194;28;20042;-72
2023/10/09 13:26:25;;;;;;;229.77;219.88;;;;;;;21.24;61.15;101944.13;5024723;28;20087;-72
2023/10/09 13:28:54;;;;;;;237.80;227.13;;;;;;;21.25;60.80;101929.28;5021736;28;20057;-72
2023/10/09 13:31:23;;;;;;;233.73;223.52;;;;;;;21.28;60.82;101928.72;5025058;28;20045;-72
2023/10/09 13:33:48;;;;;;;230.90;220.95;;;;;;;21.29;60.84;101922.94;5025184;28;20072;-74
2023/10/09 13:36:19;;;;;;;235.68;226.25;;;;;;;21.32;60.77;101924.28;5025815;28;20589;-74
2023/10/09 13:38:47;;;;;;;228.90;219.45;;;;;;;21.33;60.52;101920.44;5028048;28;20041;-74
2023/10/09 13:41:14;;;;;;;234.10;224.57;;;;;;;21.35;61.12;101926.47;5021646;28;20037;-73
2023/10/09 13:43:43;;;;;;;238.25;227.85;;;;;;;21.36;60.60;101930.84;5023881;28;20037;-73
2023/10/09 13:46:12;;;;;;;231.07;221.32;;;;;;;21.39;60.65;101924.78;5024427;28;20045;-73
2023/10/09 13:48:43;;;;;;;236.05;226.20;;;;;;;21.42;60.95;101935.25;5025007;28;20128;-73
2023/10/09 13:51:19;;;;;;;245.63;234.52;;;;;;;21.45;60.82;101933.84;5022509;28;20041;-73
2023/10/09 13:53:47;;;;;;;234.50;224.80;;;;;;;21.45;60.41;101926.41;5024432;28;20040;-74
2023/10/09 13:56:20;;;;;;;;;;;;;;;21.47;60.75;101921.47;5023481;28;20120;-72
2023/10/09 13:58:50;;;;;;;231.70;221.88;;;;;;;21.49;60.63;101924.72;5023934;28;19971;-72
2023/10/09 14:01:26;;;;;;;234.10;224.60;;;;;;;21.49;60.42;101916.47;5027125;28;20029;-73
2023/10/09 14:03:59;;;;;;;234.15;224.60;;;;;;;21.53;60.75;101922.22;5026713;28;20544;-72
2023/10/09 14:06:33;;;;;;;237.20;227.75;;;;;;;21.56;60.21;101924.38;5021561;28;20045;-73
2023/10/09 14:09:05;;;;;;;238.10;228.30;;;;;;;21.56;60.75;101919.72;5025619;28;20063;-73